createdAt,value
2022-12-08T00:09:20.728Z,1012.05
2022-12-08T00:23:20.769Z,1011.86
2022-12-08T00:37:20.727Z,1012.04
2022-12-08T00:51:20.769Z,1011.97
2022-12-08T01:05:20.733Z,1011.99
2022-12-08T01:19:20.732Z,1012.04
2022-12-08T01:33:20.738Z,1011.89
2022-12-08T01:47:20.788Z,1011.77
2022-12-08T02:01:20.820Z,1011.73
2022-12-08T02:15:20.753Z,1011.56
2022-12-08T02:29:20.749Z,1011.44
2022-12-08T02:43:20.738Z,1011.25
2022-12-08T02:57:20.757Z,1011.28
2022-12-08T03:11:20.832Z,1011.12
2022-12-08T03:25:20.788Z,1011.02
2022-12-08T03:39:20.843Z,1010.91
2022-12-08T03:53:20.801Z,1010.77
2022-12-08T04:07:20.783Z,1010.66
2022-12-08T04:21:20.827Z,1010.45
2022-12-08T04:45:17.341Z,1010.55
2022-12-08T04:59:17.383Z,1010.54
2022-12-08T05:13:17.398Z,1010.42
2022-12-08T05:27:17.562Z,1010.47
2022-12-08T05:41:17.997Z,1010.55
2022-12-08T05:55:18.555Z,1010.57
2022-12-08T06:09:18.186Z,1010.44
2022-12-08T06:23:18.254Z,1010.47
2022-12-08T06:38:18.280Z,1010.67
2022-12-08T06:53:18.296Z,1010.7
2022-12-08T07:08:18.937Z,1010.86
2022-12-08T07:23:18.716Z,1010.88
2022-12-08T07:38:18.784Z,1010.84
2022-12-08T07:53:18.979Z,1010.7
2022-12-08T08:08:19.003Z,1010.77
2022-12-08T08:23:18.981Z,1010.76
2022-12-08T08:38:19.039Z,1010.47
2022-12-08T08:54:19.055Z,1010.72
2022-12-08T09:09:19.089Z,1010.82
2022-12-08T09:25:19.053Z,1010.72
2022-12-08T09:40:19.103Z,1010.79
2022-12-08T10:04:37.206Z,1010.67
2022-12-08T10:19:37.084Z,1010.43
2022-12-08T10:59:20.823Z,1009.96
2022-12-08T11:14:20.901Z,1009.81
2022-12-08T11:29:20.931Z,1009.73
2022-12-08T11:45:20.976Z,1009.58
2022-12-08T12:00:21.006Z,1009.66
2022-12-08T12:15:21.121Z,1009.63
2022-12-08T12:30:21.053Z,1009.55
2022-12-08T12:45:21.054Z,1009.28
2022-12-08T13:00:21.036Z,1009.22
2022-12-08T13:15:21.092Z,1009.12
2022-12-08T13:30:21.075Z,1009.19
2022-12-08T13:45:40.001Z,1009.19
2022-12-08T14:00:21.240Z,1009.29
2022-12-08T14:15:21.587Z,1009.3
2022-12-08T14:30:21.474Z,1009.33
2022-12-08T14:45:21.555Z,1009.32
2022-12-08T15:00:21.556Z,1009.26
2022-12-08T15:15:21.565Z,1009.25
2022-12-08T15:30:21.596Z,1009.46
2022-12-08T15:45:21.596Z,1009.64
2022-12-08T16:00:50.295Z,1009.86
2022-12-08T16:15:23.298Z,1009.82
2022-12-08T16:28:52.647Z,1010.08
2022-12-08T16:42:21.833Z,1010.01
2022-12-08T16:56:22.278Z,1010.02
2022-12-08T17:10:22.025Z,1009.85
2022-12-08T17:24:22.330Z,1010.01
2022-12-08T17:38:22.154Z,1010.04
2022-12-08T17:52:22.176Z,1010.07
2022-12-08T18:06:25.655Z,1009.95
2022-12-08T18:20:22.317Z,1010.15
2022-12-08T18:34:22.215Z,1010.04
2022-12-08T18:48:22.226Z,1010.23
2022-12-08T19:02:22.279Z,1010.39
2022-12-08T19:16:22.315Z,1010.46
2022-12-08T19:30:22.305Z,1010.35
2022-12-08T19:44:22.426Z,1010.37
2022-12-08T19:58:22.411Z,1010.34
2022-12-08T20:12:22.447Z,1010.29
2022-12-08T20:26:22.457Z,1010.25
2022-12-08T20:40:22.461Z,1010.05
2022-12-08T20:54:22.581Z,1010.24
2022-12-08T21:08:22.620Z,1010.25
2022-12-08T21:22:22.419Z,1010.19
2022-12-08T21:36:22.556Z,1010.24
2022-12-08T21:50:22.468Z,1010.15
2022-12-08T22:04:22.554Z,1010.09
2022-12-08T22:18:22.605Z,1010.12
2022-12-08T22:32:22.699Z,1010.07
2022-12-08T22:46:22.715Z,1010.05
2022-12-08T23:00:22.496Z,1010.1
2022-12-08T23:14:22.648Z,1010.08
2022-12-08T23:28:22.454Z,1010.06
2022-12-08T23:42:22.537Z,1010.06
2022-12-08T23:56:25.583Z,1009.82
